sensor_id;sensor_type;location;lat;lon;timestamp;pressure;altitude;pressure_sealevel;temperature;humidity
10392;BME280;5242;49.244;6.774;2023-03-19T00:02:35;99253.34;;;10.00;nan
10392;BME280;5242;49.244;6.774;2023-03-19T00:10:27;99256.75;;;9.77;nan
10392;BME280;5242;49.244;6.774;2023-03-19T00:18:19;99251.50;;;9.53;nan
10392;BME280;5242;49.244;6.774;2023-03-19T00:26:12;99258.13;;;9.36;nan
10392;BME280;5242;49.244;6.774;2023-03-19T00:34:03;99262.41;;;9.21;nan
10392;BME280;5242;49.244;6.774;2023-03-19T00:41:55;99263.53;;;9.04;nan
10392;BME280;5242;49.244;6.774;2023-03-19T00:49:47;99277.03;;;8.85;nan
10392;BME280;5242;49.244;6.774;2023-03-19T00:57:39;99282.63;;;8.64;nan
10392;BME280;5242;49.244;6.774;2023-03-19T01:05:33;99273.59;;;8.44;nan
10392;BME280;5242;49.244;6.774;2023-03-19T01:13:25;99266.31;;;8.36;nan
10392;BME280;5242;49.244;6.774;2023-03-19T01:21:18;99285.38;;;8.23;nan
10392;BME280;5242;49.244;6.774;2023-03-19T01:29:10;99281.91;;;8.11;nan
10392;BME280;5242;49.244;6.774;2023-03-19T01:37:01;99295.59;;;7.90;nan
10392;BME280;5242;49.244;6.774;2023-03-19T01:44:53;99296.41;;;7.66;nan
10392;BME280;5242;49.244;6.774;2023-03-19T01:52:45;99281.84;;;7.46;nan
10392;BME280;5242;49.244;6.774;2023-03-19T02:00:37;99281.84;;;7.33;nan
10392;BME280;5242;49.244;6.774;2023-03-19T02:08:29;99290.84;;;7.25;nan
10392;BME280;5242;49.244;6.774;2023-03-19T02:16:23;99289.59;;;7.10;nan
10392;BME280;5242;49.244;6.774;2023-03-19T02:24:20;99286.41;;;6.96;nan
10392;BME280;5242;49.244;6.774;2023-03-19T02:32:13;99295.88;;;6.90;nan
10392;BME280;5242;49.244;6.774;2023-03-19T02:40:12;99298.34;;;6.83;nan
10392;BME280;5242;49.244;6.774;2023-03-19T02:48:05;99299.53;;;6.73;nan
10392;BME280;5242;49.244;6.774;2023-03-19T02:55:57;99306.63;;;6.65;nan
10392;BME280;5242;49.244;6.774;2023-03-19T03:03:49;99312.28;;;6.51;nan
10392;BME280;5242;49.244;6.774;2023-03-19T03:11:41;99310.06;;;6.32;nan
10392;BME280;5242;49.244;6.774;2023-03-19T03:19:33;99314.56;;;6.28;nan
10392;BME280;5242;49.244;6.774;2023-03-19T03:27:25;99319.84;;;6.25;nan
10392;BME280;5242;49.244;6.774;2023-03-19T03:35:17;99321.69;;;6.33;nan
10392;BME280;5242;49.244;6.774;2023-03-19T03:43:12;99324.97;;;6.39;nan
10392;BME280;5242;49.244;6.774;2023-03-19T03:51:04;99338.31;;;6.44;nan
10392;BME280;5242;49.244;6.774;2023-03-19T03:58:56;99339.25;;;6.48;nan
10392;BME280;5242;49.244;6.774;2023-03-19T04:06:48;99349.78;;;6.62;nan
10392;BME280;5242;49.244;6.774;2023-03-19T04:14:40;99340.94;;;6.73;nan
10392;BME280;5242;49.244;6.774;2023-03-19T04:22:32;99336.25;;;6.83;nan
10392;BME280;5242;49.244;6.774;2023-03-19T04:30:24;99326.31;;;6.87;nan
10392;BME280;5242;49.244;6.774;2023-03-19T04:38:15;99329.94;;;6.91;nan
10392;BME280;5242;49.244;6.774;2023-03-19T04:46:07;99331.50;;;6.92;nan
10392;BME280;5242;49.244;6.774;2023-03-19T04:53:59;99328.34;;;6.90;nan
10392;BME280;5242;49.244;6.774;2023-03-19T05:01:51;99331.19;;;6.93;nan
10392;BME280;5242;49.244;6.774;2023-03-19T05:09:43;99331.50;;;6.92;nan
10392;BME280;5242;49.244;6.774;2023-03-19T05:17:36;99343.53;;;7.03;nan
10392;BME280;5242;49.244;6.774;2023-03-19T05:25:28;99348.53;;;7.13;nan
10392;BME280;5242;49.244;6.774;2023-03-19T05:33:21;99347.84;;;7.16;nan
10392;BME280;5242;49.244;6.774;2023-03-19T05:41:13;99362.75;;;7.23;nan
10392;BME280;5242;49.244;6.774;2023-03-19T05:49:05;99362.47;;;7.36;nan
10392;BME280;5242;49.244;6.774;2023-03-19T05:56:56;99376.81;;;7.49;nan
10392;BME280;5242;49.244;6.774;2023-03-19T06:04:48;99378.94;;;7.56;nan
10392;BME280;5242;49.244;6.774;2023-03-19T06:12:40;99382.91;;;7.58;nan
10392;BME280;5242;49.244;6.774;2023-03-19T06:20:32;99396.81;;;7.69;nan
10392;BME280;5242;49.244;6.774;2023-03-19T06:28:24;99384.75;;;7.79;nan
10392;BME280;5242;49.244;6.774;2023-03-19T06:36:16;99380.22;;;7.83;nan
10392;BME280;5242;49.244;6.774;2023-03-19T06:44:08;99379.56;;;7.98;nan
10392;BME280;5242;49.244;6.774;2023-03-19T06:52:00;99384.53;;;8.21;nan
10392;BME280;5242;49.244;6.774;2023-03-19T06:59:51;99393.53;;;8.37;nan
10392;BME280;5242;49.244;6.774;2023-03-19T07:07:43;99396.47;;;8.57;nan
10392;BME280;5242;49.244;6.774;2023-03-19T07:15:35;99389.63;;;8.75;nan
10392;BME280;5242;49.244;6.774;2023-03-19T07:23:27;99398.66;;;8.79;nan
10392;BME280;5242;49.244;6.774;2023-03-19T07:31:19;99396.81;;;8.96;nan
10392;BME280;5242;49.244;6.774;2023-03-19T07:39:11;99408.44;;;9.24;nan
10392;BME280;5242;49.244;6.774;2023-03-19T07:47:02;99404.78;;;9.48;nan
10392;BME280;5242;49.244;6.774;2023-03-19T07:54:54;99413.84;;;9.68;nan
10392;BME280;5242;49.244;6.774;2023-03-19T08:02:46;99410.25;;;9.96;nan
10392;BME280;5242;49.244;6.774;2023-03-19T08:10:38;99428.69;;;10.18;nan
10392;BME280;5242;49.244;6.774;2023-03-19T08:18:31;99427.72;;;10.11;nan
10392;BME280;5242;49.244;6.774;2023-03-19T08:26:23;99432.81;;;9.96;nan
10392;BME280;5242;49.244;6.774;2023-03-19T08:34:14;99431.91;;;9.76;nan
10392;BME280;5242;49.244;6.774;2023-03-19T08:42:06;99444.84;;;9.79;nan
10392;BME280;5242;49.244;6.774;2023-03-19T08:49:58;99431.13;;;9.92;nan
10392;BME280;5242;49.244;6.774;2023-03-19T08:57:50;99458.63;;;10.02;nan
10392;BME280;5242;49.244;6.774;2023-03-19T09:05:42;99467.13;;;10.17;nan
10392;BME280;5242;49.244;6.774;2023-03-19T09:13:34;99477.84;;;10.26;nan
10392;BME280;5242;49.244;6.774;2023-03-19T09:21:26;99467.81;;;10.14;nan
10392;BME280;5242;49.244;6.774;2023-03-19T09:29:18;99474.31;;;9.93;nan
10392;BME280;5242;49.244;6.774;2023-03-19T09:37:09;99480.19;;;9.79;nan
10392;BME280;5242;49.244;6.774;2023-03-19T09:45:02;99492.97;;;9.79;nan
10392;BME280;5242;49.244;6.774;2023-03-19T09:53:05;99487.66;;;9.83;nan
10392;BME280;5242;49.244;6.774;2023-03-19T10:00:59;99494.16;;;9.94;nan
10392;BME280;5242;49.244;6.774;2023-03-19T10:17:06;99507.28;;;10.36;nan
10392;BME280;5242;49.244;6.774;2023-03-19T10:25:02;99502.44;;;10.45;nan
10392;BME280;5242;49.244;6.774;2023-03-19T10:33:25;99503.38;;;10.69;nan
10392;BME280;5242;49.244;6.774;2023-03-19T10:41:47;99496.78;;;11.05;nan
10392;BME280;5242;49.244;6.774;2023-03-19T10:49:41;99511.94;;;10.86;nan
10392;BME280;5242;49.244;6.774;2023-03-19T10:57:33;99518.88;;;10.49;nan
10392;BME280;5242;49.244;6.774;2023-03-19T11:05:27;99530.91;;;10.32;nan
10392;BME280;5242;49.244;6.774;2023-03-19T11:13:24;99522.06;;;10.22;nan
10392;BME280;5242;49.244;6.774;2023-03-19T11:21:27;99517.72;;;10.34;nan
10392;BME280;5242;49.244;6.774;2023-03-19T11:29:19;99501.19;;;10.58;nan
10392;BME280;5242;49.244;6.774;2023-03-19T11:45:57;99510.28;;;10.82;nan
10392;BME280;5242;49.244;6.774;2023-03-19T11:54:03;99504.84;;;10.82;nan
10392;BME280;5242;49.244;6.774;2023-03-19T12:26:38;99459.59;;;15.84;nan
10392;BME280;5242;49.244;6.774;2023-03-19T12:34:40;99448.22;;;16.00;nan
10392;BME280;5242;49.244;6.774;2023-03-19T12:42:37;99454.34;;;15.25;nan
10392;BME280;5242;49.244;6.774;2023-03-19T12:50:31;99458.94;;;14.37;nan
10392;BME280;5242;49.244;6.774;2023-03-19T12:58:52;99455.72;;;13.80;nan
10392;BME280;5242;49.244;6.774;2023-03-19T13:06:58;99485.97;;;13.57;nan
10392;BME280;5242;49.244;6.774;2023-03-19T13:15:11;99488.47;;;12.48;nan
10392;BME280;5242;49.244;6.774;2023-03-19T13:23:11;99477.44;;;11.52;nan
10392;BME280;5242;49.244;6.774;2023-03-19T13:31:16;99483.69;;;11.14;nan
10392;BME280;5242;49.244;6.774;2023-03-19T13:39:16;99491.41;;;11.28;nan
10392;BME280;5242;49.244;6.774;2023-03-19T13:55:30;99485.50;;;11.26;nan
10392;BME280;5242;49.244;6.774;2023-03-19T14:03:28;99481.63;;;11.27;nan
10392;BME280;5242;49.244;6.774;2023-03-19T14:11:23;99468.44;;;11.29;nan
10392;BME280;5242;49.244;6.774;2023-03-19T14:19:19;99461.63;;;11.19;nan
10392;BME280;5242;49.244;6.774;2023-03-19T14:27:14;99459.41;;;11.25;nan
10392;BME280;5242;49.244;6.774;2023-03-19T14:35:12;99457.72;;;11.40;nan
10392;BME280;5242;49.244;6.774;2023-03-19T14:52:01;99440.56;;;12.84;nan
10392;BME280;5242;49.244;6.774;2023-03-19T14:59:54;99439.44;;;13.19;nan
10392;BME280;5242;49.244;6.774;2023-03-19T15:07:48;99432.53;;;13.29;nan
10392;BME280;5242;49.244;6.774;2023-03-19T15:16:17;99428.34;;;13.05;nan
10392;BME280;5242;49.244;6.774;2023-03-19T15:24:14;99440.78;;;12.99;nan
10392;BME280;5242;49.244;6.774;2023-03-19T15:32:06;99459.28;;;12.82;nan
10392;BME280;5242;49.244;6.774;2023-03-19T15:40:05;99459.94;;;12.72;nan
10392;BME280;5242;49.244;6.774;2023-03-19T15:55:56;99465.06;;;12.77;nan
10392;BME280;5242;49.244;6.774;2023-03-19T16:03:54;99475.56;;;12.75;nan
10392;BME280;5242;49.244;6.774;2023-03-19T16:11:47;99474.34;;;12.43;nan
10392;BME280;5242;49.244;6.774;2023-03-19T16:27:40;99518.50;;;11.60;nan
10392;BME280;5242;49.244;6.774;2023-03-19T16:35:33;99532.06;;;11.17;nan
10392;BME280;5242;49.244;6.774;2023-03-19T16:43:31;99542.97;;;10.82;nan
10392;BME280;5242;49.244;6.774;2023-03-19T16:51:24;99555.66;;;10.58;nan
10392;BME280;5242;49.244;6.774;2023-03-19T16:59:26;99571.19;;;10.74;nan
10392;BME280;5242;49.244;6.774;2023-03-19T17:07:18;99571.06;;;10.86;nan
10392;BME280;5242;49.244;6.774;2023-03-19T17:23:11;99590.19;;;10.54;nan
10392;BME280;5242;49.244;6.774;2023-03-19T17:31:04;99601.66;;;10.32;nan
10392;BME280;5242;49.244;6.774;2023-03-19T17:38:56;99621.78;;;10.15;nan
10392;BME280;5242;49.244;6.774;2023-03-19T17:46:49;99621.25;;;10.09;nan
10392;BME280;5242;49.244;6.774;2023-03-19T17:54:42;99613.06;;;9.93;nan
10392;BME280;5242;49.244;6.774;2023-03-19T18:02:34;99612.31;;;9.80;nan
10392;BME280;5242;49.244;6.774;2023-03-19T18:10:27;99610.78;;;9.67;nan
10392;BME280;5242;49.244;6.774;2023-03-19T18:18:20;99617.19;;;9.47;nan
10392;BME280;5242;49.244;6.774;2023-03-19T18:26:12;99626.53;;;9.21;nan
10392;BME280;5242;49.244;6.774;2023-03-19T18:34:06;99636.06;;;9.03;nan
10392;BME280;5242;49.244;6.774;2023-03-19T18:42:01;99654.72;;;8.80;nan
10392;BME280;5242;49.244;6.774;2023-03-19T18:49:52;99664.06;;;8.58;nan
10392;BME280;5242;49.244;6.774;2023-03-19T18:57:52;99679.94;;;8.35;nan
10392;BME280;5242;49.244;6.774;2023-03-19T19:05:45;99692.19;;;8.20;nan
10392;BME280;5242;49.244;6.774;2023-03-19T19:13:36;99713.59;;;8.00;nan
10392;BME280;5242;49.244;6.774;2023-03-19T19:21:46;99719.94;;;7.83;nan
10392;BME280;5242;49.244;6.774;2023-03-19T19:29:38;99725.16;;;7.68;nan
10392;BME280;5242;49.244;6.774;2023-03-19T19:37:29;99736.91;;;7.72;nan
10392;BME280;5242;49.244;6.774;2023-03-19T19:53:17;99764.09;;;7.93;nan
10392;BME280;5242;49.244;6.774;2023-03-19T20:01:20;99773.59;;;7.99;nan
10392;BME280;5242;49.244;6.774;2023-03-19T20:09:12;99777.69;;;8.05;nan
10392;BME280;5242;49.244;6.774;2023-03-19T20:17:04;99787.44;;;8.06;nan
10392;BME280;5242;49.244;6.774;2023-03-19T20:24:56;99790.94;;;8.06;nan
10392;BME280;5242;49.244;6.774;2023-03-19T20:32:49;99808.16;;;8.11;nan
10392;BME280;5242;49.244;6.774;2023-03-19T20:40:48;99806.94;;;8.20;nan
10392;BME280;5242;49.244;6.774;2023-03-19T20:48:40;99830.53;;;8.28;nan
10392;BME280;5242;49.244;6.774;2023-03-19T20:56:33;99844.09;;;8.28;nan
10392;BME280;5242;49.244;6.774;2023-03-19T21:04:28;99845.56;;;8.26;nan
10392;BME280;5242;49.244;6.774;2023-03-19T21:12:32;99848.00;;;8.19;nan
10392;BME280;5242;49.244;6.774;2023-03-19T21:20:28;99858.06;;;8.18;nan
10392;BME280;5242;49.244;6.774;2023-03-19T21:28:24;99850.34;;;8.20;nan
10392;BME280;5242;49.244;6.774;2023-03-19T21:36:16;99845.75;;;8.21;nan
10392;BME280;5242;49.244;6.774;2023-03-19T21:44:12;99842.56;;;8.19;nan
10392;BME280;5242;49.244;6.774;2023-03-19T21:52:04;99837.44;;;8.17;nan
10392;BME280;5242;49.244;6.774;2023-03-19T21:59:56;99830.97;;;8.10;nan
10392;BME280;5242;49.244;6.774;2023-03-19T22:07:48;99820.78;;;8.06;nan
10392;BME280;5242;49.244;6.774;2023-03-19T22:15:40;99823.59;;;8.10;nan
10392;BME280;5242;49.244;6.774;2023-03-19T22:23:32;99822.34;;;8.07;nan
10392;BME280;5242;49.244;6.774;2023-03-19T22:31:23;99839.56;;;8.12;nan
10392;BME280;5242;49.244;6.774;2023-03-19T22:39:16;99841.63;;;8.15;nan
10392;BME280;5242;49.244;6.774;2023-03-19T22:47:17;99846.38;;;8.18;nan
10392;BME280;5242;49.244;6.774;2023-03-19T22:55:09;99847.84;;;8.15;nan
10392;BME280;5242;49.244;6.774;2023-03-19T23:03:01;99852.34;;;8.11;nan
10392;BME280;5242;49.244;6.774;2023-03-19T23:10:53;99848.22;;;8.05;nan
10392;BME280;5242;49.244;6.774;2023-03-19T23:18:45;99856.34;;;8.05;nan
10392;BME280;5242;49.244;6.774;2023-03-19T23:26:37;99863.03;;;8.07;nan
10392;BME280;5242;49.244;6.774;2023-03-19T23:34:29;99864.94;;;8.16;nan
10392;BME280;5242;49.244;6.774;2023-03-19T23:42:27;99865.19;;;8.23;nan
10392;BME280;5242;49.244;6.774;2023-03-19T23:50:20;99875.53;;;8.30;nan
10392;BME280;5242;49.244;6.774;2023-03-19T23:58:12;99877.09;;;8.31;nan
